This is the latest recevied weather packets stored in our database for station/object KF6RAL-6. If no packets are shown the sender has not sent any weather packets the latest 10 day(s).
| Time | Temp. | Humidity | Pressure | Rain* | Wind** | Luminosity | Snow |
|---|---|---|---|---|---|---|---|
| 1777759271 | 18.89° C | 47% | 1015.6 hPa | 0 mm | - | - | - |
| 1777758850 | 18.89° C | 45% | 1015.8 hPa | 0 mm | - | - | - |
| 1777758430 | 18.33° C | 51% | 1016.1 hPa | 0 mm | - | - | - |
| 1777758010 | 18.33° C | 48% | 1016.2 hPa | 0 mm | - | - | - |
| 1777757587 | 18.89° C | 48% | 1016 hPa | 0 mm | - | - | - |
| 1777757167 | 18.89° C | 48% | 1016.1 hPa | 0 mm | - | - | - |
| 1777756326 | 17.78° C | 56% | 1016.6 hPa | 0 mm | - | - | - |
| 1777755904 | 18.33° C | 51% | 1016.7 hPa | 0 mm | - | - | - |
| 1777755482 | 18.33° C | 51% | 1016.7 hPa | 0 mm | - | - | - |
| 1777755061 | 18.89° C | 51% | 1016.6 hPa | 0 mm | - | - | - |
| 1777754640 | 18.33° C | 52% | 1017 hPa | 0 mm | - | - | - |
| 1777754219 | 17.78° C | 55% | 1017.4 hPa | 0 mm | - | - | - |
| 1777753798 | 17.22° C | 56% | 1017.5 hPa | 0 mm | - | - | - |
| 1777753377 | 17.22° C | 58% | 1017.4 hPa | 0 mm | - | - | - |
| 1777752956 | 16.67° C | 58% | 1017 hPa | 0 mm | - | - | - |
| 1777752535 | 16.67° C | 57% | 1017 hPa | 0 mm | - | - | - |
| 1777752116 | 16.67° C | 52% | 1017.1 hPa | 0 mm | - | - | - |
| 1777751693 | 16.67° C | 56% | 1017.2 hPa | 0 mm | - | - | - |
| 1777750851 | 16.67° C | 62% | 1017.3 hPa | 0 mm | - | - | - |
| 1777750430 | 16.11° C | 60% | 1017.8 hPa | 0 mm | - | - | - |
| 1777750009 | 16.11° C | 64% | 1017.7 hPa | 0 mm | - | - | - |
| 1777749588 | 15.56° C | 65% | 1017.8 hPa | 0 mm | - | - | - |
| 1777749167 | 15.56° C | 63% | 1018.2 hPa | 0 mm | - | - | - |
| 1777748746 | 16.11° C | 63% | 1018 hPa | 0 mm | - | - | - |
| 1777748326 | 16.11° C | 63% | 1018.2 hPa | 0 mm | - | - | - |
* Rain latest hour (hover to see other rain measurements)
** Current wind speed in m/s (hover to see current wind gust speed)